sensor_id;sensor_type;location;lat;lon;timestamp;pressure;altitude;pressure_sealevel;temperature;humidity
70684;BME280;58263;48.146;11.440;2024-03-06T00:01:41;95521.81;;;6.54;93.17
70684;BME280;58263;48.146;11.440;2024-03-06T00:04:06;95520.75;;;6.62;93.21
70684;BME280;58263;48.146;11.440;2024-03-06T00:06:32;95514.19;;;6.64;93.00
70684;BME280;58263;48.146;11.440;2024-03-06T00:08:57;95523.69;;;6.47;93.30
70684;BME280;58263;48.146;11.440;2024-03-06T00:11:23;95521.56;;;6.62;93.32
70684;BME280;58263;48.146;11.440;2024-03-06T00:13:48;95529.34;;;6.64;92.23
70684;BME280;58263;48.146;11.440;2024-03-06T00:16:14;95531.47;;;6.41;93.37
70684;BME280;58263;48.146;11.440;2024-03-06T00:18:39;95537.22;;;6.45;93.97
70684;BME280;58263;48.146;11.440;2024-03-06T00:21:05;95529.78;;;6.54;93.39
70684;BME280;58263;48.146;11.440;2024-03-06T00:23:31;95535.59;;;6.37;93.72
70684;BME280;58263;48.146;11.440;2024-03-06T00:25:56;95534.16;;;6.28;94.43
70684;BME280;58263;48.146;11.440;2024-03-06T00:28:22;95529.44;;;6.37;94.72
70684;BME280;58263;48.146;11.440;2024-03-06T00:30:47;95526.94;;;6.49;94.17
70684;BME280;58263;48.146;11.440;2024-03-06T00:33:12;95525.47;;;6.59;93.76
70684;BME280;58263;48.146;11.440;2024-03-06T00:35:37;95534.66;;;6.64;93.71
70684;BME280;58263;48.146;11.440;2024-03-06T00:38:03;95533.44;;;6.66;93.01
70684;BME280;58263;48.146;11.440;2024-03-06T00:40:29;95529.75;;;6.67;93.22
70684;BME280;58263;48.146;11.440;2024-03-06T00:42:57;95525.69;;;6.58;93.10
70684;BME280;58263;48.146;11.440;2024-03-06T00:45:23;95523.63;;;6.67;93.05
70684;BME280;58263;48.146;11.440;2024-03-06T00:47:48;95536.28;;;6.71;92.76
70684;BME280;58263;48.146;11.440;2024-03-06T00:50:14;95528.88;;;6.73;92.48
70684;BME280;58263;48.146;11.440;2024-03-06T00:52:41;95524.88;;;6.57;92.46
70684;BME280;58263;48.146;11.440;2024-03-06T00:55:08;95528.16;;;6.53;94.33
70684;BME280;58263;48.146;11.440;2024-03-06T00:57:33;95520.75;;;6.62;93.79
70684;BME280;58263;48.146;11.440;2024-03-06T00:59:58;95519.16;;;6.47;94.16
70684;BME280;58263;48.146;11.440;2024-03-06T01:02:23;95520.00;;;6.41;94.10
70684;BME280;58263;48.146;11.440;2024-03-06T01:04:49;95527.59;;;6.37;94.15
70684;BME280;58263;48.146;11.440;2024-03-06T01:07:14;95527.78;;;6.42;93.92
70684;BME280;58263;48.146;11.440;2024-03-06T01:09:39;95522.88;;;6.39;94.01
70684;BME280;58263;48.146;11.440;2024-03-06T01:12:05;95520.84;;;6.35;94.56
70684;BME280;58263;48.146;11.440;2024-03-06T01:14:30;95513.06;;;6.33;94.72
70684;BME280;58263;48.146;11.440;2024-03-06T01:16:56;95521.47;;;6.30;95.28
70684;BME280;58263;48.146;11.440;2024-03-06T01:19:21;95530.69;;;6.28;95.52
70684;BME280;58263;48.146;11.440;2024-03-06T01:21:47;95524.16;;;6.10;95.42
70684;BME280;58263;48.146;11.440;2024-03-06T01:24:13;95526.97;;;6.35;95.15
70684;BME280;58263;48.146;11.440;2024-03-06T01:26:39;95510.97;;;6.42;93.94
70684;BME280;58263;48.146;11.440;2024-03-06T01:29:05;95516.16;;;6.30;95.18
70684;BME280;58263;48.146;11.440;2024-03-06T01:31:30;95510.41;;;6.20;95.64
70684;BME280;58263;48.146;11.440;2024-03-06T01:33:55;95512.72;;;6.09;96.30
70684;BME280;58263;48.146;11.440;2024-03-06T01:36:21;95523.13;;;6.18;96.37
70684;BME280;58263;48.146;11.440;2024-03-06T01:38:46;95515.94;;;6.25;95.59
70684;BME280;58263;48.146;11.440;2024-03-06T01:41:11;95512.25;;;6.26;95.46
70684;BME280;58263;48.146;11.440;2024-03-06T01:43:37;95508.75;;;6.32;95.49
70684;BME280;58263;48.146;11.440;2024-03-06T01:46:04;95506.72;;;6.34;95.17
70684;BME280;58263;48.146;11.440;2024-03-06T01:48:30;95508.50;;;6.40;95.40
70684;BME280;58263;48.146;11.440;2024-03-06T01:50:57;95503.00;;;6.35;95.10
70684;BME280;58263;48.146;11.440;2024-03-06T01:53:27;95506.53;;;6.22;95.98
70684;BME280;58263;48.146;11.440;2024-03-06T01:55:54;95502.84;;;6.17;96.12
70684;BME280;58263;48.146;11.440;2024-03-06T01:58:20;95494.84;;;6.23;96.11
70684;BME280;58263;48.146;11.440;2024-03-06T02:00:46;95498.75;;;6.14;96.03
70684;BME280;58263;48.146;11.440;2024-03-06T02:03:12;95495.47;;;6.19;96.50
70684;BME280;58263;48.146;11.440;2024-03-06T02:05:37;95493.22;;;6.16;95.95
70684;BME280;58263;48.146;11.440;2024-03-06T02:08:04;95486.88;;;6.17;96.66
70684;BME280;58263;48.146;11.440;2024-03-06T02:10:29;95488.31;;;6.13;96.49
70684;BME280;58263;48.146;11.440;2024-03-06T02:12:55;95487.53;;;6.05;97.28
70684;BME280;58263;48.146;11.440;2024-03-06T02:15:20;95487.66;;;6.24;97.16
70684;BME280;58263;48.146;11.440;2024-03-06T02:17:46;95478.44;;;6.33;96.85
70684;BME280;58263;48.146;11.440;2024-03-06T02:20:11;95475.00;;;6.19;97.10
70684;BME280;58263;48.146;11.440;2024-03-06T02:22:40;95476.41;;;6.29;97.09
70684;BME280;58263;48.146;11.440;2024-03-06T02:25:06;95463.91;;;6.29;96.40
70684;BME280;58263;48.146;11.440;2024-03-06T02:27:31;95470.19;;;6.41;95.91
70684;BME280;58263;48.146;11.440;2024-03-06T02:29:57;95466.56;;;6.29;95.58
70684;BME280;58263;48.146;11.440;2024-03-06T02:32:23;95470.41;;;6.40;95.77
70684;BME280;58263;48.146;11.440;2024-03-06T02:34:49;95476.16;;;6.37;95.86
70684;BME280;58263;48.146;11.440;2024-03-06T02:37:15;95471.84;;;6.42;95.45
70684;BME280;58263;48.146;11.440;2024-03-06T02:39:40;95462.63;;;6.45;95.23
70684;BME280;58263;48.146;11.440;2024-03-06T02:42:05;95481.03;;;6.47;95.61
70684;BME280;58263;48.146;11.440;2024-03-06T02:44:32;95470.38;;;6.47;95.01
70684;BME280;58263;48.146;11.440;2024-03-06T02:46:57;95468.16;;;6.43;95.46
70684;BME280;58263;48.146;11.440;2024-03-06T02:49:22;95468.31;;;6.49;95.19
70684;BME280;58263;48.146;11.440;2024-03-06T02:51:47;95472.19;;;6.53;94.81
70684;BME280;58263;48.146;11.440;2024-03-06T02:54:13;95472.03;;;6.48;95.61
70684;BME280;58263;48.146;11.440;2024-03-06T02:56:38;95472.38;;;6.58;95.00
70684;BME280;58263;48.146;11.440;2024-03-06T02:59:03;95476.06;;;6.57;94.70
70684;BME280;58263;48.146;11.440;2024-03-06T03:01:29;95469.31;;;6.54;94.80
70684;BME280;58263;48.146;11.440;2024-03-06T03:03:55;95476.69;;;6.59;94.41
70684;BME280;58263;48.146;11.440;2024-03-06T03:06:21;95469.72;;;6.58;94.58
70684;BME280;58263;48.146;11.440;2024-03-06T03:08:48;95479.13;;;6.60;94.63
70684;BME280;58263;48.146;11.440;2024-03-06T03:11:13;95480.84;;;6.41;95.49
70684;BME280;58263;48.146;11.440;2024-03-06T03:13:39;95483.84;;;6.58;94.78
70684;BME280;58263;48.146;11.440;2024-03-06T03:16:04;95481.00;;;6.60;94.69
70684;BME280;58263;48.146;11.440;2024-03-06T03:18:30;95476.50;;;6.54;95.26
70684;BME280;58263;48.146;11.440;2024-03-06T03:20:55;95477.13;;;6.56;94.77
70684;BME280;58263;48.146;11.440;2024-03-06T03:23:20;95478.16;;;6.55;95.02
70684;BME280;58263;48.146;11.440;2024-03-06T03:25:50;95483.03;;;6.58;95.00
70684;BME280;58263;48.146;11.440;2024-03-06T03:28:15;95490.00;;;6.59;94.68
70684;BME280;58263;48.146;11.440;2024-03-06T03:30:43;95483.03;;;6.58;94.48
70684;BME280;58263;48.146;11.440;2024-03-06T03:33:09;95483.47;;;6.55;94.94
70684;BME280;58263;48.146;11.440;2024-03-06T03:35:34;95484.47;;;6.60;94.44
70684;BME280;58263;48.146;11.440;2024-03-06T03:37:59;95485.50;;;6.59;94.30
70684;BME280;58263;48.146;11.440;2024-03-06T03:40:25;95489.59;;;6.62;94.38
70684;BME280;58263;48.146;11.440;2024-03-06T03:42:50;95490.19;;;6.64;95.31
70684;BME280;58263;48.146;11.440;2024-03-06T03:45:15;95494.69;;;6.64;95.35
70684;BME280;58263;48.146;11.440;2024-03-06T03:47:40;95493.03;;;6.69;94.82
70684;BME280;58263;48.146;11.440;2024-03-06T03:50:08;95489.78;;;6.67;94.90
70684;BME280;58263;48.146;11.440;2024-03-06T03:52:33;95498.78;;;6.66;95.33
70684;BME280;58263;48.146;11.440;2024-03-06T03:54:59;95496.91;;;6.73;94.71
70684;BME280;58263;48.146;11.440;2024-03-06T03:57:24;95502.34;;;6.53;96.14
70684;BME280;58263;48.146;11.440;2024-03-06T03:59:49;95501.25;;;6.61;96.37
70684;BME280;58263;48.146;11.440;2024-03-06T04:02:16;95506.78;;;6.66;96.65
70684;BME280;58263;48.146;11.440;2024-03-06T04:04:41;95506.34;;;6.69;96.56
70684;BME280;58263;48.146;11.440;2024-03-06T04:07:06;95509.22;;;6.74;95.82
70684;BME280;58263;48.146;11.440;2024-03-06T04:09:32;95511.28;;;6.72;95.30
70684;BME280;58263;48.146;11.440;2024-03-06T04:12:00;95503.69;;;6.69;96.02
70684;BME280;58263;48.146;11.440;2024-03-06T04:14:26;95510.47;;;6.65;95.33
70684;BME280;58263;48.146;11.440;2024-03-06T04:16:51;95512.78;;;6.55;94.65
70684;BME280;58263;48.146;11.440;2024-03-06T04:19:17;95519.53;;;6.57;94.46
70684;BME280;58263;48.146;11.440;2024-03-06T04:21:42;95515.00;;;6.65;94.68
70684;BME280;58263;48.146;11.440;2024-03-06T04:24:08;95516.63;;;6.66;95.80
70684;BME280;58263;48.146;11.440;2024-03-06T04:26:33;95510.28;;;6.67;94.92
70684;BME280;58263;48.146;11.440;2024-03-06T04:28:58;95514.56;;;6.68;94.70
70684;BME280;58263;48.146;11.440;2024-03-06T04:31:24;95512.75;;;6.68;94.36
70684;BME280;58263;48.146;11.440;2024-03-06T04:33:50;95520.91;;;6.73;93.95
70684;BME280;58263;48.146;11.440;2024-03-06T04:36:15;95517.88;;;6.63;93.94
70684;BME280;58263;48.146;11.440;2024-03-06T04:38:40;95518.66;;;6.70;94.04
70684;BME280;58263;48.146;11.440;2024-03-06T04:41:06;95522.97;;;6.71;94.37
70684;BME280;58263;48.146;11.440;2024-03-06T04:43:32;95522.53;;;6.74;94.89
70684;BME280;58263;48.146;11.440;2024-03-06T04:45:57;95530.09;;;6.77;93.95
70684;BME280;58263;48.146;11.440;2024-03-06T04:48:22;95528.50;;;6.76;94.09
70684;BME280;58263;48.146;11.440;2024-03-06T04:50:48;95528.06;;;6.80;94.89
70684;BME280;58263;48.146;11.440;2024-03-06T04:53:13;95536.66;;;6.82;94.53
70684;BME280;58263;48.146;11.440;2024-03-06T04:55:39;95526.41;;;6.79;94.10
70684;BME280;58263;48.146;11.440;2024-03-06T04:58:04;95534.41;;;6.79;94.44
70684;BME280;58263;48.146;11.440;2024-03-06T05:00:30;95538.09;;;6.77;94.47
70684;BME280;58263;48.146;11.440;2024-03-06T05:02:55;95542.84;;;6.75;94.53
70684;BME280;58263;48.146;11.440;2024-03-06T05:05:21;95536.09;;;6.66;94.93
70684;BME280;58263;48.146;11.440;2024-03-06T05:07:46;95541.63;;;6.71;94.11
70684;BME280;58263;48.146;11.440;2024-03-06T05:10:11;95541.19;;;6.74;94.18
70684;BME280;58263;48.146;11.440;2024-03-06T05:12:37;95553.94;;;6.72;94.24
70684;BME280;58263;48.146;11.440;2024-03-06T05:15:02;95548.19;;;6.69;94.53
70684;BME280;58263;48.146;11.440;2024-03-06T05:17:28;95555.13;;;6.76;94.31
70684;BME280;58263;48.146;11.440;2024-03-06T05:19:53;95554.16;;;6.71;94.55
70684;BME280;58263;48.146;11.440;2024-03-06T05:22:19;95567.03;;;6.74;93.95
70684;BME280;58263;48.146;11.440;2024-03-06T05:24:46;95562.50;;;6.74;93.67
70684;BME280;58263;48.146;11.440;2024-03-06T05:27:11;95560.88;;;6.73;93.73
70684;BME280;58263;48.146;11.440;2024-03-06T05:29:42;95572.16;;;6.75;93.56
70684;BME280;58263;48.146;11.440;2024-03-06T05:32:08;95571.34;;;6.75;93.62
70684;BME280;58263;48.146;11.440;2024-03-06T05:34:34;95578.63;;;6.41;93.97
70684;BME280;58263;48.146;11.440;2024-03-06T05:37:00;95576.19;;;6.13;94.64
70684;BME280;58263;48.146;11.440;2024-03-06T05:39:26;95579.44;;;6.28;95.11
70684;BME280;58263;48.146;11.440;2024-03-06T05:41:55;95583.56;;;6.24;94.76
70684;BME280;58263;48.146;11.440;2024-03-06T05:44:20;95584.16;;;6.39;94.57
70684;BME280;58263;48.146;11.440;2024-03-06T05:46:46;95588.03;;;6.43;94.64
70684;BME280;58263;48.146;11.440;2024-03-06T05:49:12;95587.44;;;6.15;93.61
70684;BME280;58263;48.146;11.440;2024-03-06T05:51:37;95591.53;;;6.11;94.46
70684;BME280;58263;48.146;11.440;2024-03-06T05:54:03;95602.41;;;5.82;94.32
70684;BME280;58263;48.146;11.440;2024-03-06T05:56:29;95595.63;;;5.66;95.85
70684;BME280;58263;48.146;11.440;2024-03-06T05:58:55;95604.81;;;5.57;96.23
70684;BME280;58263;48.146;11.440;2024-03-06T06:01:20;95604.31;;;5.20;96.21
70684;BME280;58263;48.146;11.440;2024-03-06T06:03:46;95602.31;;;5.35;96.86
70684;BME280;58263;48.146;11.440;2024-03-06T06:06:15;95604.44;;;4.98;98.92
70684;BME280;58263;48.146;11.440;2024-03-06T06:08:40;95602.06;;;5.17;98.46
70684;BME280;58263;48.146;11.440;2024-03-06T06:11:05;95607.94;;;5.05;98.93
70684;BME280;58263;48.146;11.440;2024-03-06T06:13:30;95612.44;;;5.05;98.65
70684;BME280;58263;48.146;11.440;2024-03-06T06:15:58;95615.22;;;4.83;99.13
70684;BME280;58263;48.146;11.440;2024-03-06T06:18:23;95621.41;;;4.97;99.61
70684;BME280;58263;48.146;11.440;2024-03-06T06:20:48;95625.00;;;4.76;100.00
70684;BME280;58263;48.146;11.440;2024-03-06T06:23:14;95628.28;;;4.78;100.00
70684;BME280;58263;48.146;11.440;2024-03-06T06:25:39;95632.78;;;4.78;100.00
70684;BME280;58263;48.146;11.440;2024-03-06T06:28:04;95634.75;;;4.69;100.00
70684;BME280;58263;48.146;11.440;2024-03-06T06:30:30;95637.25;;;4.70;100.00
70684;BME280;58263;48.146;11.440;2024-03-06T06:32:56;95635.63;;;4.76;100.00
70684;BME280;58263;48.146;11.440;2024-03-06T06:35:21;95643.38;;;4.71;100.00
70684;BME280;58263;48.146;11.440;2024-03-06T06:37:47;95641.53;;;4.71;99.41
70684;BME280;58263;48.146;11.440;2024-03-06T06:40:13;95632.78;;;4.78;99.67
70684;BME280;58263;48.146;11.440;2024-03-06T06:42:44;95645.50;;;4.89;98.75
70684;BME280;58263;48.146;11.440;2024-03-06T06:45:12;95637.28;;;4.84;98.53
70684;BME280;58263;48.146;11.440;2024-03-06T06:47:37;95639.78;;;4.92;98.95
70684;BME280;58263;48.146;11.440;2024-03-06T06:50:04;95646.34;;;4.89;98.35
70684;BME280;58263;48.146;11.440;2024-03-06T06:52:30;95643.91;;;5.01;97.95
70684;BME280;58263;48.146;11.440;2024-03-06T06:54:56;95649.53;;;4.78;99.39
70684;BME280;58263;48.146;11.440;2024-03-06T06:57:21;95648.28;;;4.74;100.00
70684;BME280;58263;48.146;11.440;2024-03-06T06:59:47;95652.22;;;4.85;99.48
70684;BME280;58263;48.146;11.440;2024-03-06T07:02:12;95645.91;;;4.86;99.61
70684;BME280;58263;48.146;11.440;2024-03-06T07:04:38;95653.84;;;4.79;99.80
70684;BME280;58263;48.146;11.440;2024-03-06T07:07:03;95664.69;;;4.84;100.00
70684;BME280;58263;48.146;11.440;2024-03-06T07:09:28;95658.16;;;4.80;99.28
70684;BME280;58263;48.146;11.440;2024-03-06T07:11:54;95653.94;;;4.99;99.45
70684;BME280;58263;48.146;11.440;2024-03-06T07:14:20;95660.72;;;5.02;98.16
70684;BME280;58263;48.146;11.440;2024-03-06T07:16:46;95662.72;;;5.00;98.90
70684;BME280;58263;48.146;11.440;2024-03-06T07:19:12;95661.00;;;4.79;98.79
70684;BME280;58263;48.146;11.440;2024-03-06T07:21:37;95664.34;;;4.94;98.41
70684;BME280;58263;48.146;11.440;2024-03-06T07:24:03;95666.03;;;4.67;100.00
70684;BME280;58263;48.146;11.440;2024-03-06T07:26:29;95662.00;;;4.78;100.00
70684;BME280;58263;48.146;11.440;2024-03-06T07:28:55;95667.72;;;4.81;100.00
70684;BME280;58263;48.146;11.440;2024-03-06T07:31:20;95667.28;;;4.71;100.00
70684;BME280;58263;48.146;11.440;2024-03-06T07:33:46;95666.72;;;4.82;100.00
70684;BME280;58263;48.146;11.440;2024-03-06T07:36:11;95672.84;;;4.76;99.08
70684;BME280;58263;48.146;11.440;2024-03-06T07:38:36;95674.44;;;4.70;99.48
70684;BME280;58263;48.146;11.440;2024-03-06T07:41:01;95681.06;;;4.53;99.65
70684;BME280;58263;48.146;11.440;2024-03-06T07:43:27;95678.41;;;4.53;100.00
70684;BME280;58263;48.146;11.440;2024-03-06T07:45:52;95684.19;;;4.63;100.00
70684;BME280;58263;48.146;11.440;2024-03-06T07:48:18;95689.59;;;4.77;100.00
70684;BME280;58263;48.146;11.440;2024-03-06T07:50:44;95687.88;;;4.62;99.40
70684;BME280;58263;48.146;11.440;2024-03-06T07:53:10;95700.00;;;4.43;99.82
70684;BME280;58263;48.146;11.440;2024-03-06T07:55:35;95694.72;;;4.50;100.00
70684;BME280;58263;48.146;11.440;2024-03-06T07:58:00;95696.38;;;4.51;99.77
70684;BME280;58263;48.146;11.440;2024-03-06T08:00:25;95702.03;;;4.41;100.00
70684;BME280;58263;48.146;11.440;2024-03-06T08:02:52;95699.41;;;4.48;100.00
70684;BME280;58263;48.146;11.440;2024-03-06T08:05:17;95706.88;;;4.37;100.00
70684;BME280;58263;48.146;11.440;2024-03-06T08:07:43;95710.44;;;4.45;100.00
70684;BME280;58263;48.146;11.440;2024-03-06T08:10:10;95711.69;;;4.49;99.66
70684;BME280;58263;48.146;11.440;2024-03-06T08:12:41;95704.59;;;4.56;99.73
70684;BME280;58263;48.146;11.440;2024-03-06T08:15:08;95699.94;;;4.65;99.99
70684;BME280;58263;48.146;11.440;2024-03-06T08:17:35;95707.34;;;4.69;99.37
70684;BME280;58263;48.146;11.440;2024-03-06T08:20:01;95708.38;;;4.75;100.00
70684;BME280;58263;48.146;11.440;2024-03-06T08:22:27;95716.06;;;4.63;100.00
70684;BME280;58263;48.146;11.440;2024-03-06T08:24:52;95720.38;;;4.64;100.00
70684;BME280;58263;48.146;11.440;2024-03-06T08:27:17;95716.13;;;4.70;100.00
70684;BME280;58263;48.146;11.440;2024-03-06T08:29:43;95707.19;;;4.78;99.32
70684;BME280;58263;48.146;11.440;2024-03-06T08:32:08;95709.09;;;4.90;98.69
70684;BME280;58263;48.146;11.440;2024-03-06T08:34:34;95720.31;;;4.86;100.00
70684;BME280;58263;48.146;11.440;2024-03-06T08:36:59;95716.44;;;4.88;99.11
70684;BME280;58263;48.146;11.440;2024-03-06T08:39:24;95706.50;;;5.04;97.81
70684;BME280;58263;48.146;11.440;2024-03-06T08:41:49;95721.41;;;4.98;97.19
70684;BME280;58263;48.146;11.440;2024-03-06T08:44:15;95721.31;;;4.85;98.74
70684;BME280;58263;48.146;11.440;2024-03-06T08:46:40;95719.22;;;5.08;97.91
70684;BME280;58263;48.146;11.440;2024-03-06T08:49:06;95721.09;;;5.15;96.30
70684;BME280;58263;48.146;11.440;2024-03-06T08:51:31;95720.88;;;5.16;97.18
70684;BME280;58263;48.146;11.440;2024-03-06T08:53:56;95718.41;;;5.15;97.65
70684;BME280;58263;48.146;11.440;2024-03-06T08:56:22;95724.97;;;5.19;98.59
70684;BME280;58263;48.146;11.440;2024-03-06T08:58:47;95726.47;;;5.28;97.28
70684;BME280;58263;48.146;11.440;2024-03-06T09:01:13;95734.84;;;5.25;97.81
70684;BME280;58263;48.146;11.440;2024-03-06T09:03:38;95735.63;;;5.19;96.94
70684;BME280;58263;48.146;11.440;2024-03-06T09:06:03;95737.50;;;4.90;97.73
70684;BME280;58263;48.146;11.440;2024-03-06T09:08:28;95743.31;;;5.07;97.18
70684;BME280;58263;48.146;11.440;2024-03-06T09:10:54;95742.81;;;5.25;96.41
70684;BME280;58263;48.146;11.440;2024-03-06T09:13:21;95748.31;;;5.23;96.37
70684;BME280;58263;48.146;11.440;2024-03-06T09:15:46;95749.63;;;5.41;94.64
70684;BME280;58263;48.146;11.440;2024-03-06T09:18:11;95746.72;;;5.29;97.30
70684;BME280;58263;48.146;11.440;2024-03-06T09:20:37;95755.75;;;5.35;96.73
70684;BME280;58263;48.146;11.440;2024-03-06T09:23:02;95757.81;;;5.39;96.26
70684;BME280;58263;48.146;11.440;2024-03-06T09:25:28;95756.16;;;5.32;94.32
70684;BME280;58263;48.146;11.440;2024-03-06T09:27:54;95757.66;;;5.48;nan
70684;BME280;58263;48.146;11.440;2024-03-06T09:30:19;95751.69;;;5.04;94.06
70684;BME280;58263;48.146;11.440;2024-03-06T09:32:44;95756.16;;;5.32;95.67
70684;BME280;58263;48.146;11.440;2024-03-06T09:35:09;95765.19;;;5.37;95.78
70684;BME280;58263;48.146;11.440;2024-03-06T09:37:35;95767.19;;;5.35;97.30
70684;BME280;58263;48.146;11.440;2024-03-06T09:40:00;95768.03;;;5.36;97.17
70684;BME280;58263;48.146;11.440;2024-03-06T09:42:25;95774.84;;;5.10;97.95
70684;BME280;58263;48.146;11.440;2024-03-06T09:44:51;95766.69;;;5.12;98.35
70684;BME280;58263;48.146;11.440;2024-03-06T09:47:21;95764.91;;;5.25;97.98
70684;BME280;58263;48.146;11.440;2024-03-06T09:49:48;95777.28;;;5.05;97.86
70684;BME280;58263;48.146;11.440;2024-03-06T09:52:14;95774.63;;;5.47;98.05
70684;BME280;58263;48.146;11.440;2024-03-06T09:54:40;95772.75;;;5.40;98.50
70684;BME280;58263;48.146;11.440;2024-03-06T09:57:05;95774.91;;;5.17;98.87
70684;BME280;58263;48.146;11.440;2024-03-06T09:59:31;95772.44;;;5.22;97.81
70684;BME280;58263;48.146;11.440;2024-03-06T10:01:57;95777.91;;;5.49;97.53
70684;BME280;58263;48.146;11.440;2024-03-06T10:04:27;95775.06;;;5.50;98.17
70684;BME280;58263;48.146;11.440;2024-03-06T10:06:54;95781.03;;;5.59;97.88
70684;BME280;58263;48.146;11.440;2024-03-06T10:09:20;95785.09;;;5.48;97.93
70684;BME280;58263;48.146;11.440;2024-03-06T10:11:46;95786.47;;;5.37;97.84
70684;BME280;58263;48.146;11.440;2024-03-06T10:14:11;95787.13;;;5.53;97.07
70684;BME280;58263;48.146;11.440;2024-03-06T10:16:38;95791.72;;;5.72;97.14
70684;BME280;58263;48.146;11.440;2024-03-06T10:19:16;95785.63;;;5.37;97.73
70684;BME280;58263;48.146;11.440;2024-03-06T10:21:48;95794.78;;;5.69;98.55
70684;BME280;58263;48.146;11.440;2024-03-06T10:24:20;95792.94;;;5.63;97.42
70684;BME280;58263;48.146;11.440;2024-03-06T10:26:46;95791.88;;;5.64;96.35
70684;BME280;58263;48.146;11.440;2024-03-06T10:29:16;95801.28;;;5.60;96.50
70684;BME280;58263;48.146;11.440;2024-03-06T10:31:47;95805.53;;;5.48;98.57
70684;BME280;58263;48.146;11.440;2024-03-06T10:34:12;95804.81;;;5.67;97.74
70684;BME280;58263;48.146;11.440;2024-03-06T10:36:38;95801.31;;;5.67;97.93
70684;BME280;58263;48.146;11.440;2024-03-06T10:39:04;95796.84;;;5.67;97.49
70684;BME280;58263;48.146;11.440;2024-03-06T10:41:33;95800.28;;;6.03;98.41
70684;BME280;58263;48.146;11.440;2024-03-06T10:43:59;95809.28;;;6.08;97.00
70684;BME280;58263;48.146;11.440;2024-03-06T10:46:27;95803.03;;;5.81;94.12
70684;BME280;58263;48.146;11.440;2024-03-06T10:48:53;95807.56;;;5.94;94.54
70684;BME280;58263;48.146;11.440;2024-03-06T10:51:20;95813.25;;;5.78;95.16
70684;BME280;58263;48.146;11.440;2024-03-06T10:53:47;95818.63;;;5.91;95.32
70684;BME280;58263;48.146;11.440;2024-03-06T10:56:13;95817.31;;;5.73;95.65
70684;BME280;58263;48.146;11.440;2024-03-06T10:58:40;95830.50;;;5.88;96.52
70684;BME280;58263;48.146;11.440;2024-03-06T11:01:07;95823.41;;;6.02;94.13
70684;BME280;58263;48.146;11.440;2024-03-06T11:03:33;95821.47;;;5.83;95.01
70684;BME280;58263;48.146;11.440;2024-03-06T11:06:01;95823.53;;;5.94;93.50
70684;BME280;58263;48.146;11.440;2024-03-06T11:08:27;95823.47;;;5.81;95.00
70684;BME280;58263;48.146;11.440;2024-03-06T11:10:54;95821.91;;;5.86;96.85
70684;BME280;58263;48.146;11.440;2024-03-06T11:13:23;95823.13;;;5.90;96.93
70684;BME280;58263;48.146;11.440;2024-03-06T11:15:51;95821.41;;;5.69;97.69
70684;BME280;58263;48.146;11.440;2024-03-06T11:20:59;95828.13;;;6.00;96.50
70684;BME280;58263;48.146;11.440;2024-03-06T11:23:24;95819.16;;;5.73;97.75
70684;BME280;58263;48.146;11.440;2024-03-06T11:28:28;95825.59;;;5.92;97.45
70684;BME280;58263;48.146;11.440;2024-03-06T11:33:19;95819.75;;;5.68;97.57
70684;BME280;58263;48.146;11.440;2024-03-06T11:38:59;95825.19;;;5.95;97.04
70684;BME280;58263;48.146;11.440;2024-03-06T11:41:27;95817.09;;;6.17;94.68
70684;BME280;58263;48.146;11.440;2024-03-06T11:43:54;95829.22;;;5.78;96.13
70684;BME280;58263;48.146;11.440;2024-03-06T11:46:21;95829.19;;;5.71;96.93
70684;BME280;58263;48.146;11.440;2024-03-06T11:48:55;95823.53;;;5.94;95.70
70684;BME280;58263;48.146;11.440;2024-03-06T11:51:24;95825.31;;;6.22;93.75
70684;BME280;58263;48.146;11.440;2024-03-06T11:53:52;95823.25;;;6.17;93.19
70684;BME280;58263;48.146;11.440;2024-03-06T11:56:19;95839.63;;;6.14;93.14
70684;BME280;58263;48.146;11.440;2024-03-06T11:58:46;95833.78;;;5.90;94.11
70684;BME280;58263;48.146;11.440;2024-03-06T12:01:11;95820.97;;;6.14;92.60
70684;BME280;58263;48.146;11.440;2024-03-06T12:03:37;95831.28;;;6.31;93.21
70684;BME280;58263;48.146;11.440;2024-03-06T12:06:02;95830.91;;;5.92;95.73
70684;BME280;58263;48.146;11.440;2024-03-06T12:08:28;95827.38;;;5.85;95.24
70684;BME280;58263;48.146;11.440;2024-03-06T12:10:53;95831.50;;;5.87;97.68
70684;BME280;58263;48.146;11.440;2024-03-06T12:13:20;95834.81;;;5.89;97.83
70684;BME280;58263;48.146;11.440;2024-03-06T12:15:46;95830.59;;;6.08;96.79
70684;BME280;58263;48.146;11.440;2024-03-06T12:18:12;95825.88;;;6.11;95.25
70684;BME280;58263;48.146;11.440;2024-03-06T12:20:43;95827.31;;;6.06;96.34
70684;BME280;58263;48.146;11.440;2024-03-06T12:23:19;95833.06;;;6.10;95.71
70684;BME280;58263;48.146;11.440;2024-03-06T12:25:45;95834.03;;;6.02;94.43
70684;BME280;58263;48.146;11.440;2024-03-06T12:28:10;95838.28;;;5.90;95.50
70684;BME280;58263;48.146;11.440;2024-03-06T12:30:41;95837.94;;;6.00;94.99
70684;BME280;58263;48.146;11.440;2024-03-06T12:33:08;95842.28;;;6.14;95.26
70684;BME280;58263;48.146;11.440;2024-03-06T12:35:33;95841.94;;;6.37;95.14
70684;BME280;58263;48.146;11.440;2024-03-06T12:37:59;95838.88;;;6.40;93.66
70684;BME280;58263;48.146;11.440;2024-03-06T12:40:24;95847.03;;;6.32;95.32
70684;BME280;58263;48.146;11.440;2024-03-06T12:42:50;95849.75;;;6.52;94.38
70684;BME280;58263;48.146;11.440;2024-03-06T12:45:17;95848.75;;;6.60;95.01
70684;BME280;58263;48.146;11.440;2024-03-06T12:47:44;95844.22;;;6.54;93.49
70684;BME280;58263;48.146;11.440;2024-03-06T12:50:11;95847.53;;;6.63;93.00
70684;BME280;58263;48.146;11.440;2024-03-06T12:52:37;95844.44;;;6.59;92.05
70684;BME280;58263;48.146;11.440;2024-03-06T12:55:03;95847.69;;;6.34;92.62
70684;BME280;58263;48.146;11.440;2024-03-06T12:57:31;95840.75;;;6.60;94.73
70684;BME280;58263;48.146;11.440;2024-03-06T12:59:56;95844.00;;;6.49;91.70
70684;BME280;58263;48.146;11.440;2024-03-06T13:02:21;95845.47;;;6.58;92.85
70684;BME280;58263;48.146;11.440;2024-03-06T13:04:46;95840.94;;;6.38;93.59